»·PEaware :: N210AR KBFL-KSMX

N210AR :: KBFL-KSMX

FLIGHT INFORMATION

Flight Status: Arrived
Operator: Privately registered:
United States
More flights under this callsign
Pilot: Max S. (16657)
Aircraft: CESSNA 172 SKYHAWK
(C172)
More flights by this aircraft type
Origin: KBFL Meadows
United States
Destination: KSMX Santa Maria Pub/Capt Hancock
United States
More flights between these airports :: More routes between these airports
Route: +
File this flight plan on PilotEdge
Remarks:
Altitude:
(Current/Filed)
6,500ft
Speed:
(Current/Filed)
100kts
Departed: 09-Oct-17 10:21 AM
Arrived: 09-Oct-17 11:27 AM
Distance/Time
Traveled:
75nm/1:06
Distance/Time
To Go:
Arrived

Flight Plot

Page will automatically refresh every two minutes.


Map Options




Map Legend


Flown Route
Filed Route
Departure Airport
Arrival Airport
Navaid (VOR, NDB)
Fix

Horizontal Profiles

Position Reports

Time Latitude Longitude Heading Altitude Ground
Speed
09-Oct-17 10:04 35.435699 -119.052039 180 509ft 0kts
09-Oct-17 10:05 35.435699 -119.052039 180 509ft 0kts
09-Oct-17 10:07 35.435699 -119.052039 180 509ft 0kts
09-Oct-17 10:07 35.435699 -119.052039 180 509ft 0kts
09-Oct-17 10:08 35.435699 -119.052039 180 509ft 0kts
09-Oct-17 10:09 35.435699 -119.052039 179 509ft 0kts
09-Oct-17 10:10 35.435699 -119.052039 179 509ft 0kts
09-Oct-17 10:11 35.435699 -119.052039 179 509ft 0kts
09-Oct-17 10:12 35.435699 -119.052039 179 509ft 0kts
09-Oct-17 10:13 35.435699 -119.052039 179 509ft 0kts
09-Oct-17 10:14 35.435699 -119.052039 180 509ft 0kts
09-Oct-17 10:15 35.435699 -119.052039 180 509ft 0kts
09-Oct-17 10:16 35.435699 -119.052039 180 509ft 0kts
09-Oct-17 10:17 35.435699 -119.052039 180 509ft 0kts
09-Oct-17 10:18 35.435491 -119.053236 258 509ft 14kts
09-Oct-17 10:19 35.433902 -119.054069 135 509ft 15kts
09-Oct-17 10:20 35.429891 -119.049215 135 509ft 36kts
09-Oct-17 10:21 35.425680 -119.044663 198 509ft 2kts
09-Oct-17 10:22 35.425630 -119.044713 230 509ft 0kts
09-Oct-17 10:23 35.425630 -119.044713 230 509ft 0kts
09-Oct-17 10:24 35.425503 -119.045552 278 509ft 19kts
09-Oct-17 10:25 35.432166 -119.055225 310 939ft 63kts
09-Oct-17 10:26 35.439597 -119.067388 306 1685ft 65kts
09-Oct-17 10:27 35.445761 -119.079219 304 2368ft 60kts
09-Oct-17 10:28 35.441544 -119.089562 245 2886ft 67kts
09-Oct-17 10:29 35.436676 -119.100294 245 3415ft 65kts
09-Oct-17 10:30 35.431651 -119.110597 232 3935ft 63kts
09-Oct-17 10:31 35.424470 -119.119315 231 4399ft 68kts
09-Oct-17 10:32 35.417158 -119.128127 228 4881ft 68kts
09-Oct-17 10:33 35.409579 -119.137904 236 5328ft 73kts
09-Oct-17 10:34 35.400795 -119.148511 223 5812ft 73kts
09-Oct-17 10:35 35.392137 -119.156271 218 6261ft 71kts
09-Oct-17 10:36 35.383039 -119.165711 245 6580ft 88kts
09-Oct-17 10:37 35.377560 -119.184734 252 6556ft 115kts
09-Oct-17 10:38 35.369842 -119.207211 249 6538ft 121kts
09-Oct-17 10:39 35.361106 -119.230056 248 6534ft 117kts
09-Oct-17 10:40 35.351913 -119.252934 247 6510ft 117kts
09-Oct-17 10:41 35.342946 -119.274730 247 6508ft 116kts
09-Oct-17 10:42 35.333908 -119.296463 247 6508ft 115kts
09-Oct-17 10:43 35.324791 -119.318272 246 6509ft 115kts
09-Oct-17 10:44 35.315676 -119.340008 246 6508ft 114kts
09-Oct-17 10:45 35.306648 -119.361501 246 6509ft 114kts
09-Oct-17 10:46 35.298153 -119.381707 246 6509ft 114kts
09-Oct-17 10:47 35.289006 -119.403442 246 6509ft 114kts
09-Oct-17 10:48 35.279379 -119.426300 246 6509ft 114kts
09-Oct-17 10:49 35.269965 -119.448637 246 6509ft 114kts
09-Oct-17 10:50 35.260631 -119.470767 246 6509ft 114kts
09-Oct-17 10:51 35.251242 -119.493015 246 6509ft 114kts
09-Oct-17 10:52 35.241903 -119.515127 246 6509ft 114kts
09-Oct-17 10:53 35.232503 -119.537383 246 6508ft 114kts
09-Oct-17 10:54 35.223227 -119.559332 246 6508ft 115kts
09-Oct-17 10:55 35.213694 -119.581870 246 6499ft 116kts
09-Oct-17 10:56 35.204366 -119.603902 246 6497ft 116kts
09-Oct-17 10:57 35.194633 -119.626874 246 6496ft 116kts
09-Oct-17 10:58 35.184765 -119.650145 245 6495ft 116kts
09-Oct-17 10:59 35.174737 -119.673779 245 6495ft 116kts
09-Oct-17 11:00 35.164037 -119.698976 244 6493ft 117kts
09-Oct-17 11:01 35.152215 -119.726795 244 6492ft 117kts
09-Oct-17 11:02 35.140834 -119.753553 244 6491ft 117kts
09-Oct-17 11:03 35.129240 -119.780773 244 6491ft 117kts
09-Oct-17 11:04 35.117008 -119.809469 244 6490ft 117kts
09-Oct-17 11:05 35.104682 -119.838371 244 6490ft 117kts
09-Oct-17 11:06 35.092599 -119.867648 249 6489ft 116kts
09-Oct-17 11:07 35.083308 -119.896011 250 6490ft 116kts
09-Oct-17 11:08 35.074118 -119.924294 250 6490ft 117kts
09-Oct-17 11:09 35.065134 -119.952026 250 6490ft 117kts
09-Oct-17 11:10 35.056726 -119.977981 250 6490ft 117kts
09-Oct-17 11:11 35.048221 -120.004219 250 6490ft 117kts
09-Oct-17 11:12 35.039663 -120.030597 250 6490ft 118kts
09-Oct-17 11:13 35.030859 -120.057697 250 6489ft 118kts
09-Oct-17 11:14 35.021790 -120.085595 250 6488ft 118kts
09-Oct-17 11:15 35.012950 -120.112987 248 6531ft 113kts
09-Oct-17 11:16 35.004690 -120.138163 249 6535ft 110kts
09-Oct-17 11:17 34.996718 -120.162587 249 6536ft 110kts
09-Oct-17 11:18 34.988597 -120.187480 249 6536ft 110kts
09-Oct-17 11:19 34.980320 -120.212837 249 6536ft 110kts
09-Oct-17 11:20 34.971674 -120.239300 249 6536ft 110kts
09-Oct-17 11:21 34.962789 -120.266473 249 6536ft 110kts
09-Oct-17 11:22 34.954071 -120.293113 250 6536ft 110kts
09-Oct-17 11:23 34.947030 -120.314571 252 6271ft 84kts
09-Oct-17 11:24 34.939301 -120.338314 245 5162ft 116kts
09-Oct-17 11:25 34.925365 -120.359666 222 4188ft 112kts
09-Oct-17 11:26 34.904215 -120.376036 225 2639ft 126kts
09-Oct-17 11:27 34.892007 -120.397314 250 1780ft 100kts
09-Oct-17 11:28 34.885607 -120.420956 267 942ft 77kts
09-Oct-17 11:29 34.886959 -120.434943 282 752ft 57kts
09-Oct-17 11:30 34.892840 -120.446649 327 344ft 62kts
09-Oct-17 11:31 34.898677 -120.451778 87 264ft 7kts
09-Oct-17 11:32 34.898687 -120.451227 92 264ft 0kts
09-Oct-17 11:33 34.898707 -120.450596 83 264ft 7kts
09-Oct-17 11:34 34.900356 -120.450726 175 264ft 0kts

Navigation Log

Ident Type
1. KBFL Airport
2. KSMX Airport